createdAt,value
2022-09-21T00:01:20.258Z,168.17
2022-09-21T00:03:48.793Z,202.17
2022-09-21T00:06:18.772Z,177.27
2022-09-21T00:08:48.901Z,225.63
2022-09-21T00:11:18.388Z,153.83
2022-09-21T00:13:46.974Z,143.03
2022-09-21T00:16:17.105Z,185.23
2022-09-21T00:18:45.238Z,133.57
2022-09-21T00:21:14.927Z,129.77
2022-09-21T00:23:43.577Z,132.63
2022-09-21T00:26:15.183Z,106.87
2022-09-21T00:28:44.577Z,129.37
2022-09-21T00:31:15.009Z,235.50
2022-09-21T00:33:43.990Z,273.73
2022-09-21T00:36:13.887Z,220.13
2022-09-21T00:38:41.907Z,243.13
2022-09-21T00:41:12.323Z,240.23
2022-09-21T00:43:43.465Z,257.97
2022-09-21T00:46:17.047Z,235.57
2022-09-21T00:48:46.953Z,187.33
2022-09-21T00:51:15.098Z,239.00
2022-09-21T00:53:43.113Z,360.93
2022-09-21T00:56:13.399Z,312.73
2022-09-21T00:58:45.265Z,252.97
2022-09-21T01:01:18.718Z,282.03
2022-09-21T01:03:47.497Z,222.00
2022-09-21T01:06:16.573Z,275.53
2022-09-21T01:08:45.548Z,385.53
2022-09-21T01:11:27.361Z,410.10
2022-09-21T01:14:09.548Z,388.20
2022-09-21T01:16:44.454Z,384.63
2022-09-21T01:19:25.376Z,339.93
2022-09-21T01:22:01.131Z,384.53
2022-09-21T01:24:49.082Z,280.33
2022-09-21T01:27:33.273Z,380.50
2022-09-21T01:30:05.152Z,367.20
2022-09-21T01:32:36.114Z,371.07
2022-09-21T01:35:07.938Z,439.17
2022-09-21T01:37:39.178Z,448.20
2022-09-21T01:40:11.177Z,451.53
2022-09-21T01:42:41.006Z,457.37
2022-09-21T01:45:12.422Z,384.90
2022-09-21T01:47:42.082Z,413.27
2022-09-21T01:50:11.253Z,446.63
2022-09-21T01:52:42.793Z,322.67
2022-09-21T01:55:14.081Z,464.23
2022-09-21T01:57:45.887Z,332.03
2022-09-21T02:00:17.204Z,344.83
2022-09-21T02:02:48.096Z,367.13
2022-09-21T02:05:17.433Z,292.23
2022-09-21T02:07:46.042Z,339.37
2022-09-21T02:10:20.592Z,310.83
2022-09-21T02:12:51.860Z,305.50
2022-09-21T02:15:23.817Z,283.03
2022-09-21T02:17:59.200Z,265.70
2022-09-21T02:20:31.135Z,246.07
2022-09-21T02:23:04.981Z,269.70
2022-09-21T02:25:41.283Z,342.10
2022-09-21T02:28:13.533Z,366.73
2022-09-21T02:30:45.345Z,377.67
2022-09-21T02:33:19.549Z,373.17
2022-09-21T02:35:52.072Z,433.30
2022-09-21T02:38:26.859Z,420.53
2022-09-21T02:41:00.712Z,442.50
2022-09-21T02:43:32.696Z,561.17
2022-09-21T02:46:06.483Z,539.57
2022-09-21T02:48:36.477Z,477.70
2022-09-21T02:51:08.286Z,388.70
2022-09-21T02:53:38.308Z,475.17
2022-09-21T02:56:08.046Z,554.30
2022-09-21T02:58:39.748Z,584.03
2022-09-21T03:01:12.098Z,608.60
2022-09-21T03:03:40.136Z,486.47
2022-09-21T03:06:08.563Z,572.40
2022-09-21T03:08:36.608Z,539.07
2022-09-21T03:11:04.917Z,602.97
2022-09-21T03:13:33.355Z,611.67
2022-09-21T03:16:02.592Z,586.40
2022-09-21T03:18:32.599Z,562.20
2022-09-21T03:21:02.333Z,605.23
2022-09-21T03:23:30.802Z,573.00
2022-09-21T03:25:59.509Z,579.90
2022-09-21T03:28:27.666Z,561.97
2022-09-21T03:30:55.959Z,589.73
2022-09-21T03:33:25.183Z,624.37
2022-09-21T03:35:54.559Z,669.60
2022-09-21T03:38:22.660Z,622.77
2022-09-21T03:40:51.281Z,633.80
2022-09-21T03:43:19.569Z,631.30
2022-09-21T03:45:49.261Z,658.97
2022-09-21T03:48:17.252Z,614.87
2022-09-21T03:50:45.329Z,617.93
2022-09-21T03:53:15.503Z,617.70
2022-09-21T03:55:43.867Z,474.07
2022-09-21T03:58:11.904Z,593.20
2022-09-21T04:00:40.279Z,537.50
2022-09-21T04:03:08.451Z,525.03
2022-09-21T04:05:36.439Z,497.80
2022-09-21T04:08:04.439Z,515.67
2022-09-21T04:10:33.905Z,520.27
2022-09-21T04:13:03.428Z,524.27
2022-09-21T04:15:32.078Z,538.17
2022-09-21T04:18:00.288Z,493.97
2022-09-21T04:20:28.327Z,521.80
2022-09-21T04:22:56.318Z,549.13
2022-09-21T04:25:24.455Z,547.40
2022-09-21T04:27:54.448Z,561.70
2022-09-21T04:30:22.528Z,533.07
2022-09-21T04:32:50.771Z,567.47
2022-09-21T04:35:18.959Z,574.20
2022-09-21T04:37:48.230Z,652.33
2022-09-21T04:40:16.569Z,531.60
2022-09-21T04:42:44.721Z,597.17
2022-09-21T04:45:17.446Z,604.20
2022-09-21T04:47:45.828Z,600.40
2022-09-21T04:50:14.004Z,550.87
2022-09-21T04:52:42.017Z,522.90
2022-09-21T04:55:10.749Z,581.80
2022-09-21T04:57:39.162Z,540.03
2022-09-21T05:00:08.280Z,401.03
2022-09-21T05:02:37.692Z,558.23
2022-09-21T05:05:06.794Z,552.33
2022-09-21T05:07:35.021Z,675.13
2022-09-21T05:10:05.154Z,605.83
2022-09-21T05:12:33.982Z,615.87
2022-09-21T05:15:02.961Z,736.50
2022-09-21T05:17:32.282Z,666.07
2022-09-21T05:20:06.072Z,550.30
2022-09-21T05:22:34.653Z,627.37
2022-09-21T05:25:07.877Z,689.33
2022-09-21T05:27:36.229Z,644.30
2022-09-21T05:30:05.690Z,673.77
2022-09-21T05:32:44.115Z,694.17
2022-09-21T05:35:22.198Z,701.47
2022-09-21T05:37:55.271Z,695.27
2022-09-21T05:40:23.942Z,715.23
2022-09-21T05:42:52.684Z,713.67
2022-09-21T05:45:23.089Z,736.07
2022-09-21T05:48:08.273Z,748.70
2022-09-21T05:50:48.820Z,832.37
2022-09-21T05:53:26.484Z,726.03
2022-09-21T05:55:58.425Z,749.00
2022-09-21T05:58:32.226Z,774.93
2022-09-21T06:01:12.071Z,719.90
2022-09-21T06:03:42.363Z,809.43
2022-09-21T06:06:11.728Z,740.83
2022-09-21T06:08:39.873Z,779.20
2022-09-21T06:11:07.974Z,796.90
2022-09-21T06:13:37.671Z,767.57
2022-09-21T06:16:06.800Z,809.90
2022-09-21T06:18:38.228Z,768.10
2022-09-21T06:21:06.499Z,902.07
2022-09-21T06:23:36.068Z,861.03
2022-09-21T06:26:04.305Z,792.00
2022-09-21T06:28:32.341Z,863.77
2022-09-21T06:31:00.635Z,855.60
2022-09-21T06:33:28.642Z,863.30
2022-09-21T06:35:59.184Z,864.50
2022-09-21T06:38:29.096Z,803.30
2022-09-21T06:41:02.301Z,782.97
2022-09-21T06:43:30.508Z,863.23
2022-09-21T06:46:00.086Z,845.37
2022-09-21T06:48:28.812Z,811.60
2022-09-21T06:50:59.492Z,896.20
2022-09-21T06:53:28.322Z,903.33
2022-09-21T06:56:03.240Z,823.90
2022-09-21T06:58:34.210Z,920.80
2022-09-21T07:01:07.504Z,919.87
2022-09-21T07:03:35.970Z,877.50
2022-09-21T07:06:05.032Z,1202.85
2022-09-21T07:11:24.012Z,878.43
2022-09-21T07:13:52.797Z,907.00
2022-09-21T07:16:21.633Z,913.17
2022-09-21T07:18:50.118Z,875.10
2022-09-21T07:21:18.208Z,968.50
2022-09-21T07:23:46.216Z,836.40
2022-09-21T07:26:15.128Z,857.13
2022-09-21T07:28:44.525Z,911.03
2022-09-21T07:31:15.023Z,863.27
2022-09-21T07:33:43.725Z,1226.77
2022-09-21T07:36:13.084Z,1003.97
2022-09-21T07:38:42.803Z,957.00
2022-09-21T07:41:12.252Z,888.40
2022-09-21T07:43:40.566Z,947.73
2022-09-21T07:46:12.424Z,922.30
2022-09-21T07:48:40.543Z,873.10
2022-09-21T07:51:11.170Z,924.13
2022-09-21T07:53:40.803Z,950.37
2022-09-21T07:56:10.487Z,931.07
2022-09-21T07:58:56.803Z,900.07
2022-09-21T08:01:27.663Z,869.93
2022-09-21T08:03:56.944Z,948.07
2022-09-21T08:06:26.255Z,923.73
2022-09-21T08:08:57.835Z,886.33
2022-09-21T08:11:27.561Z,949.07
2022-09-21T08:13:57.220Z,908.93
2022-09-21T08:16:27.007Z,882.13
2022-09-21T08:18:55.130Z,878.53
2022-09-21T08:21:23.311Z,941.00
2022-09-21T08:23:51.326Z,975.00
2022-09-21T08:26:21.324Z,870.43
2022-09-21T08:28:51.513Z,915.60
2022-09-21T08:31:23.165Z,951.10
2022-09-21T08:33:53.385Z,886.90
2022-09-21T08:36:21.526Z,932.20
2022-09-21T08:39:14.183Z,861.63
2022-09-21T08:41:53.880Z,856.40
2022-09-21T08:44:25.405Z,858.37
2022-09-21T08:47:02.597Z,918.87
2022-09-21T08:49:32.762Z,920.40
2022-09-21T08:52:02.962Z,876.27
2022-09-21T08:54:36.308Z,901.50
2022-09-21T08:57:05.993Z,875.40
2022-09-21T08:59:35.203Z,833.10
2022-09-21T09:02:14.787Z,795.07
2022-09-21T09:04:51.477Z,705.87
2022-09-21T09:07:41.315Z,673.53
2022-09-21T09:10:19.327Z,491.13
2022-09-21T09:12:57.036Z,466.60
2022-09-21T09:15:39.393Z,336.43
2022-09-21T09:18:11.568Z,255.07
2022-09-21T09:20:43.245Z,207.17
2022-09-21T09:23:14.415Z,209.60
2022-09-21T09:25:43.988Z,113.50
2022-09-21T09:28:19.073Z,91.60
2022-09-21T09:30:47.290Z,79.10
2022-09-21T09:33:20.571Z,74.17
2022-09-21T09:35:52.271Z,68.40
2022-09-21T09:38:22.911Z,66.90
2022-09-21T09:41:01.826Z,65.70
2022-09-21T09:43:39.638Z,64.17
2022-09-21T09:46:13.648Z,64.60
2022-09-21T09:48:54.511Z,63.47
2022-09-21T09:51:23.956Z,63.07
2022-09-21T09:53:52.482Z,63.00
2022-09-21T09:56:20.480Z,64.30
2022-09-21T09:58:52.545Z,64.93
2022-09-21T10:01:42.750Z,63.20
2022-09-21T10:04:13.110Z,63.30
2022-09-21T10:06:46.462Z,65.77
2022-09-21T10:09:25.442Z,62.80
2022-09-21T10:11:54.248Z,62.80
2022-09-21T10:14:23.651Z,69.73
2022-09-21T10:16:53.074Z,63.27
2022-09-21T10:19:23.283Z,64.00
2022-09-21T10:21:57.475Z,63.17
2022-09-21T10:24:27.027Z,63.97
2022-09-21T10:26:56.868Z,63.00
2022-09-21T10:29:33.595Z,63.83
2022-09-21T10:32:04.022Z,63.97
2022-09-21T10:34:33.226Z,63.70
2022-09-21T10:37:04.303Z,66.47
2022-09-21T10:39:32.789Z,63.90
2022-09-21T10:42:03.275Z,63.80
2022-09-21T10:44:39.321Z,64.80
2022-09-21T10:47:21.282Z,64.87
2022-09-21T10:49:51.699Z,63.10
2022-09-21T10:52:22.853Z,64.40
2022-09-21T10:54:52.739Z,63.70
2022-09-21T10:57:23.341Z,63.60
2022-09-21T10:59:51.737Z,67.27
2022-09-21T11:02:29.729Z,64.50
2022-09-21T11:05:00.499Z,64.03
2022-09-21T11:07:33.152Z,63.47
2022-09-21T11:10:06.220Z,63.40
2022-09-21T11:12:46.435Z,63.50
2022-09-21T11:15:21.947Z,66.53
2022-09-21T11:17:54.937Z,63.97
2022-09-21T11:20:28.080Z,66.23
2022-09-21T11:23:02.374Z,66.10
2022-09-21T11:25:36.711Z,68.00
2022-09-21T11:28:13.380Z,64.20
2022-09-21T11:30:50.592Z,63.97
2022-09-21T11:33:35.145Z,64.63
2022-09-21T11:36:09.640Z,64.53
2022-09-21T11:38:51.656Z,65.10
2022-09-21T11:41:31.349Z,63.87
2022-09-21T11:44:12.598Z,72.83
2022-09-21T11:46:47.764Z,65.80
2022-09-21T11:49:32.366Z,64.47
2022-09-21T11:52:14.906Z,65.10
2022-09-21T11:54:57.602Z,64.60
2022-09-21T11:57:28.637Z,64.73
2022-09-21T12:00:06.689Z,65.47
2022-09-21T12:03:09.537Z,65.27
2022-09-21T12:05:41.343Z,64.97
2022-09-21T12:08:25.805Z,64.73
2022-09-21T12:11:03.185Z,65.17
2022-09-21T12:13:37.221Z,64.70
2022-09-21T12:16:11.648Z,65.63
2022-09-21T12:18:45.435Z,66.70
2022-09-21T12:21:18.210Z,66.30
2022-09-21T12:23:50.573Z,66.97
2022-09-21T12:26:21.918Z,65.20
2022-09-21T12:28:53.055Z,65.90
2022-09-21T12:31:27.578Z,65.30
2022-09-21T12:33:58.238Z,64.97
2022-09-21T12:36:29.409Z,65.60
2022-09-21T12:39:02.940Z,66.17
2022-09-21T12:41:37.795Z,66.60
2022-09-21T12:44:16.684Z,67.70
2022-09-21T12:46:48.821Z,65.37
2022-09-21T12:49:21.550Z,65.70
2022-09-21T12:51:54.553Z,66.70
2022-09-21T12:54:29.104Z,67.70
2022-09-21T12:57:23.544Z,65.63
2022-09-21T13:00:00.969Z,65.20
2022-09-21T13:02:55.780Z,66.00
2022-09-21T13:05:34.724Z,65.60
2022-09-21T13:08:07.487Z,66.90
2022-09-21T13:10:45.940Z,65.60
2022-09-21T13:13:25.702Z,66.30
2022-09-21T13:15:54.018Z,69.70
2022-09-21T13:18:25.791Z,65.50
2022-09-21T13:21:19.431Z,65.20
2022-09-21T13:23:53.242Z,66.60
2022-09-21T13:26:35.809Z,66.30
2022-09-21T13:29:27.915Z,67.20
2022-09-21T13:31:58.887Z,66.03
2022-09-21T13:34:29.605Z,65.50
2022-09-21T13:37:27.646Z,65.97
2022-09-21T13:40:41.330Z,67.20
2022-09-21T13:43:23.643Z,65.87
2022-09-21T13:45:58.171Z,65.77
2022-09-21T13:48:29.506Z,67.97
2022-09-21T13:50:59.646Z,66.33
2022-09-21T13:53:33.375Z,66.00
2022-09-21T13:56:03.275Z,66.67
2022-09-21T13:58:34.911Z,66.70
2022-09-21T14:01:09.951Z,65.80
2022-09-21T14:03:50.370Z,66.80
2022-09-21T14:06:20.463Z,67.33
2022-09-21T14:08:51.770Z,65.97
2022-09-21T14:11:25.099Z,66.00
2022-09-21T14:14:04.847Z,65.97
2022-09-21T14:16:58.016Z,66.40
2022-09-21T14:20:08.872Z,68.60
2022-09-21T14:22:41.618Z,68.00
2022-09-21T14:25:51.086Z,66.37
2022-09-21T14:28:22.498Z,66.27
2022-09-21T14:30:55.737Z,66.50
2022-09-21T14:33:29.374Z,66.07
2022-09-21T14:35:57.833Z,66.47
2022-09-21T14:38:28.313Z,67.67
2022-09-21T14:41:00.150Z,67.10
2022-09-21T14:43:35.207Z,68.37
2022-09-21T14:46:17.087Z,68.27
2022-09-21T14:48:55.227Z,66.83
2022-09-21T14:51:31.406Z,67.20
2022-09-21T14:54:18.391Z,66.90
2022-09-21T14:56:55.549Z,67.20
2022-09-21T14:59:38.734Z,66.97
2022-09-21T15:02:18.044Z,66.90
2022-09-21T15:05:00.896Z,67.20
2022-09-21T15:07:59.903Z,67.80
2022-09-21T15:10:54.451Z,66.90
2022-09-21T15:13:38.715Z,67.90
2022-09-21T15:16:20.239Z,67.97
2022-09-21T15:18:50.561Z,68.67
2022-09-21T15:21:26.666Z,68.67
2022-09-21T15:23:54.996Z,67.77
2022-09-21T15:26:29.233Z,68.27
2022-09-21T15:29:15.682Z,67.40
2022-09-21T15:31:43.802Z,77.33
2022-09-21T15:34:13.799Z,67.60
2022-09-21T15:36:44.193Z,66.80
2022-09-21T15:39:23.303Z,67.27
2022-09-21T15:41:57.799Z,69.07
2022-09-21T15:44:27.699Z,67.90
2022-09-21T15:47:00.937Z,67.53
2022-09-21T15:49:30.263Z,66.70
2022-09-21T15:52:01.401Z,68.70
2022-09-21T15:54:32.953Z,68.80
2022-09-21T15:57:04.741Z,67.23
2022-09-21T15:59:36.187Z,70.60
2022-09-21T16:02:12.874Z,67.37
2022-09-21T16:04:49.370Z,66.47
2022-09-21T16:07:28.365Z,65.47
2022-09-21T16:09:56.398Z,66.47
2022-09-21T16:12:40.841Z,70.23
2022-09-21T16:15:16.459Z,65.80
2022-09-21T16:18:02.912Z,66.00
2022-09-21T16:20:43.310Z,65.90
2022-09-21T16:23:17.830Z,66.87
2022-09-21T16:25:47.010Z,65.80
2022-09-21T16:28:36.694Z,65.23
2022-09-21T16:31:32.055Z,67.00
2022-09-21T16:34:04.822Z,70.25
2022-09-21T16:36:44.910Z,67.53
2022-09-21T16:39:16.552Z,65.30
2022-09-21T16:41:48.376Z,64.87
2022-09-21T16:44:20.834Z,65.53
2022-09-21T16:46:51.974Z,65.70
2022-09-21T16:49:22.047Z,64.83
2022-09-21T16:51:51.131Z,64.27
2022-09-21T16:54:25.317Z,64.60
2022-09-21T16:56:55.164Z,70.87
2022-09-21T16:59:23.405Z,67.13
2022-09-21T17:01:56.341Z,65.27
2022-09-21T17:04:26.224Z,65.77
2022-09-21T17:06:55.168Z,64.97
2022-09-21T17:09:29.781Z,65.07
2022-09-21T17:12:01.312Z,72.00
2022-09-21T17:14:35.202Z,63.70
2022-09-21T17:17:05.766Z,64.60
2022-09-21T17:19:34.829Z,66.17
2022-09-21T17:22:04.377Z,65.10
2022-09-21T17:24:49.811Z,65.80
2022-09-21T17:27:19.755Z,66.93
2022-09-21T17:29:49.296Z,63.77
2022-09-21T17:32:20.374Z,65.40
2022-09-21T17:34:55.353Z,64.40
2022-09-21T17:37:25.153Z,64.00
2022-09-21T17:39:54.678Z,64.80
2022-09-21T17:42:25.170Z,64.63
2022-09-21T17:45:12.459Z,73.50
2022-09-21T17:47:41.358Z,70.20
2022-09-21T17:50:23.076Z,73.43
2022-09-21T17:53:08.449Z,67.77
2022-09-21T17:55:39.094Z,66.70
2022-09-21T17:58:16.179Z,65.50
2022-09-21T18:00:51.212Z,70.55
2022-09-21T18:03:22.408Z,66.00
2022-09-21T18:05:52.776Z,66.40
2022-09-21T18:08:21.262Z,66.10
2022-09-21T18:11:00.098Z,65.70
2022-09-21T18:13:38.253Z,65.90
2022-09-21T18:16:19.939Z,67.30
2022-09-21T18:18:53.663Z,65.37
2022-09-21T18:21:24.752Z,65.20
2022-09-21T18:24:10.465Z,64.00
2022-09-21T18:26:40.363Z,63.70
2022-09-21T18:29:38.919Z,66.10
2022-09-21T18:32:20.813Z,64.43
2022-09-21T18:35:16.975Z,65.07
2022-09-21T18:37:55.158Z,63.27
2022-09-21T18:40:27.932Z,63.90
2022-09-21T18:43:01.370Z,63.90
2022-09-21T18:45:31.905Z,65.63
2022-09-21T18:48:21.463Z,63.97
2022-09-21T18:50:56.661Z,64.67
2022-09-21T18:53:29.861Z,65.67
2022-09-21T18:55:58.449Z,63.80
2022-09-21T18:58:30.116Z,63.13
2022-09-21T19:00:58.792Z,63.27
2022-09-21T19:03:28.140Z,65.07
2022-09-21T19:06:07.963Z,65.47
2022-09-21T19:08:40.233Z,64.33
2022-09-21T19:11:12.599Z,64.27
2022-09-21T19:13:48.427Z,63.70
2022-09-21T19:16:24.377Z,64.53
2022-09-21T19:19:01.696Z,63.33
2022-09-21T19:21:36.588Z,63.13
2022-09-21T19:24:11.865Z,64.67
2022-09-21T19:26:46.746Z,71.43
2022-09-21T19:29:28.095Z,66.37
2022-09-21T19:31:56.349Z,65.97
2022-09-21T19:34:24.648Z,69.57
2022-09-21T19:36:52.799Z,66.47
2022-09-21T19:39:21.374Z,66.60
2022-09-21T19:41:57.298Z,72.50
2022-09-21T19:44:41.757Z,73.47
2022-09-21T19:47:16.666Z,70.60
2022-09-21T19:49:50.419Z,65.80
2022-09-21T19:52:19.692Z,68.70
2022-09-21T19:55:05.959Z,70.23
2022-09-21T19:57:52.887Z,69.97
2022-09-21T20:00:24.090Z,68.70
2022-09-21T20:03:03.364Z,71.63
2022-09-21T20:05:38.422Z,67.63
2022-09-21T20:08:12.543Z,67.60
2022-09-21T20:11:10.105Z,67.87
2022-09-21T20:13:48.637Z,66.10
2022-09-21T20:16:31.270Z,65.57
2022-09-21T20:19:03.435Z,65.37
2022-09-21T20:21:40.584Z,66.80
2022-09-21T20:24:19.862Z,64.70
2022-09-21T20:26:49.623Z,67.10
2022-09-21T20:29:18.280Z,64.57
2022-09-21T20:31:48.638Z,67.50
2022-09-21T20:34:16.778Z,67.77
2022-09-21T20:36:44.775Z,66.10
2022-09-21T20:39:12.779Z,67.07
2022-09-21T20:41:40.794Z,65.50
2022-09-21T20:44:12.127Z,67.20
2022-09-21T20:46:40.098Z,67.97
2022-09-21T20:49:09.463Z,67.90
2022-09-21T20:51:37.605Z,65.90
2022-09-21T20:54:06.220Z,65.30
2022-09-21T20:56:34.327Z,64.97
2022-09-21T20:59:02.387Z,67.80
2022-09-21T21:01:30.581Z,64.17
2022-09-21T21:04:01.823Z,65.23
2022-09-21T21:06:32.611Z,63.50
2022-09-21T21:09:00.994Z,64.80
2022-09-21T21:11:29.028Z,64.67
2022-09-21T21:13:57.284Z,64.70
2022-09-21T21:16:25.582Z,65.53
2022-09-21T21:18:53.630Z,67.60
2022-09-21T21:21:21.603Z,66.10
2022-09-21T21:24:09.417Z,69.27
2022-09-21T21:27:01.177Z,64.77
2022-09-21T21:29:25.647Z,64.07
2022-09-21T21:31:53.656Z,64.63
2022-09-21T21:34:23.135Z,70.00
2022-09-21T21:36:51.081Z,66.63
2022-09-21T21:39:20.461Z,67.17
2022-09-21T21:41:48.578Z,66.40
2022-09-21T21:44:16.755Z,68.70
2022-09-21T21:46:44.797Z,67.00
2022-09-21T21:49:13.289Z,68.73
2022-09-21T21:51:41.457Z,69.00
2022-09-21T21:54:09.542Z,71.57
2022-09-21T21:56:38.905Z,72.90
2022-09-21T21:59:06.976Z,74.27
2022-09-21T22:01:35.086Z,76.90
2022-09-21T22:04:03.676Z,72.40
2022-09-21T22:06:33.416Z,69.90
2022-09-21T22:09:01.730Z,71.20
2022-09-21T22:11:30.950Z,77.60
2022-09-21T22:14:01.100Z,74.87
2022-09-21T22:16:31.392Z,69.17
2022-09-21T22:19:00.102Z,70.17
2022-09-21T22:21:29.291Z,70.10
2022-09-21T22:23:58.868Z,79.03
2022-09-21T22:26:27.925Z,77.73
2022-09-21T22:28:57.938Z,92.80
2022-09-21T22:31:29.344Z,97.80
2022-09-21T22:33:57.554Z,100.33
2022-09-21T22:36:30.722Z,103.43
2022-09-21T22:38:59.431Z,83.80
2022-09-21T22:41:29.898Z,86.17
2022-09-21T22:43:59.345Z,77.83
2022-09-21T22:46:29.976Z,77.23
2022-09-21T22:48:58.203Z,82.87
2022-09-21T22:51:26.220Z,106.90
2022-09-21T22:53:54.223Z,87.07
2022-09-21T22:56:23.279Z,92.07
2022-09-21T22:58:53.322Z,125.17
2022-09-21T23:01:25.486Z,112.07
2022-09-21T23:03:57.326Z,109.87
2022-09-21T23:06:29.475Z,95.17
2022-09-21T23:08:59.160Z,106.47
2022-09-21T23:11:28.818Z,152.70
2022-09-21T23:13:57.869Z,131.60
2022-09-21T23:16:27.340Z,168.03
2022-09-21T23:18:57.818Z,185.97
2022-09-21T23:21:27.583Z,257.03
2022-09-21T23:23:56.742Z,256.37
2022-09-21T23:26:26.154Z,239.63
2022-09-21T23:28:55.515Z,223.57
2022-09-21T23:31:24.382Z,293.63
2022-09-21T23:33:53.813Z,251.47
2022-09-21T23:36:26.039Z,275.77
2022-09-21T23:38:54.275Z,237.50
2022-09-21T23:41:24.305Z,223.43
2022-09-21T23:43:52.802Z,186.30
2022-09-21T23:46:22.471Z,160.27
2022-09-21T23:48:50.689Z,160.50
2022-09-21T23:51:19.216Z,189.33
2022-09-21T23:53:48.805Z,141.37
2022-09-21T23:56:18.244Z,150.27
2022-09-21T23:58:46.613Z,223.23
